Time;durP1;ratioP1;P1;durP2;ratioP2;P2;SDS_P1;SDS_P2;PMS_P1;PMS_P2;Temp;Humidity;BMP_temperature;BMP_pressure;BME280_temperature;BME280_humidity;BME280_pressure;Samples;Min_cycle;Max_cycle;Signal;HPM_P1;HPM_P2
2022/06/30 00:00:12;;;;;;;5.43;3.78;;;23.60;64.80;;;;;;5053681;28;20465;-64
2022/06/30 00:02:38;;;;;;;4.10;3.60;;;23.60;64.80;;;;;;5053520;28;20124;-64
2022/06/30 00:05:04;;;;;;;4.18;3.13;;;23.60;64.70;;;;;;5052131;28;20374;-64
2022/06/30 00:07:30;;;;;;;5.00;3.95;;;23.60;64.70;;;;;;5053583;28;20037;-64
2022/06/30 00:09:55;;;;;;;4.22;3.60;;;23.60;64.70;;;;;;5053042;28;20045;-64
2022/06/30 00:12:21;;;;;;;3.78;3.35;;;23.60;64.70;;;;;;5052782;28;20048;-64
2022/06/30 00:14:46;;;;;;;5.15;3.60;;;23.60;64.60;;;;;;5053141;28;20048;-64
2022/06/30 00:17:12;;;;;;;3.47;3.05;;;23.60;64.60;;;;;;5052541;28;20051;-64
2022/06/30 00:19:37;;;;;;;4.35;3.30;;;23.60;64.50;;;;;;5052620;28;20098;-64
2022/06/30 00:22:06;;;;;;;4.38;3.60;;;23.60;64.50;;;;;;5052193;28;20041;-64
2022/06/30 00:24:32;;;;;;;5.43;3.85;;;23.60;64.40;;;;;;5053056;28;20051;-64
2022/06/30 00:26:58;;;;;;;5.10;3.33;;;23.60;64.40;;;;;;5052046;28;20037;-64
2022/06/30 00:29:23;;;;;;;4.75;3.70;;;23.60;64.40;;;;;;5052949;28;20400;-64
2022/06/30 00:31:49;;;;;;;3.60;3.17;;;23.60;64.30;;;;;;5052513;28;20523;-64
2022/06/30 00:34:14;;;;;;;3.95;3.20;;;23.50;64.30;;;;;;5051951;28;20044;-64
2022/06/30 00:36:40;;;;;;;4.50;3.03;;;23.60;64.30;;;;;;5052770;28;20074;-64
2022/06/30 00:39:06;;;;;;;4.78;3.60;;;23.50;64.20;;;;;;5052849;28;20048;-63
2022/06/30 00:41:31;;;;;;;5.72;3.20;;;23.50;64.10;;;;;;5052177;28;20045;-64
2022/06/30 00:43:57;;;;;;;4.50;3.17;;;23.50;64.10;;;;;;5052560;28;20369;-64
2022/06/30 00:46:22;;;;;;;4.20;3.05;;;23.60;64.10;;;;;;5052978;28;20131;-64
2022/06/30 00:48:48;;;;;;;4.93;3.10;;;23.50;64.00;;;;;;5051786;28;20052;-64
2022/06/30 00:51:13;;;;;;;4.75;3.08;;;23.50;64.00;;;;;;5052742;28;20134;-64
2022/06/30 00:53:40;;;;;;;3.38;2.88;;;23.50;64.00;;;;;;5052886;28;20044;-64
2022/06/30 00:56:07;;;;;;;5.03;3.28;;;23.50;63.90;;;;;;5051932;28;20049;-63
2022/06/30 00:58:37;;;;;;;3.72;3.00;;;23.50;63.80;;;;;;5052447;28;20052;-64
2022/06/30 01:01:04;;;;;;;4.97;3.17;;;23.50;63.80;;;;;;5051648;28;20045;-64
2022/06/30 01:03:31;;;;;;;4.70;3.10;;;23.50;63.70;;;;;;5051315;28;20053;-64
2022/06/30 01:05:57;;;;;;;3.67;2.92;;;23.50;63.70;;;;;;5084362;28;20318;-64
2022/06/30 01:08:22;;;;;;;4.38;3.00;;;23.50;63.70;;;;;;5067259;28;20119;-64
2022/06/30 01:13:32;;;;;;;3.90;2.63;;;23.50;63.60;;;;;;5052741;28;20045;-64
2022/06/30 01:15:57;;;;;;;4.40;3.00;;;23.50;63.60;;;;;;5066614;28;20041;-63
2022/06/30 01:18:23;;;;;;;4.05;2.70;;;23.50;63.50;;;;;;5052658;28;20048;-64
2022/06/30 01:20:49;;;;;;;4.00;2.83;;;23.50;63.50;;;;;;5052312;28;20037;-64
2022/06/30 01:23:14;;;;;;;3.55;2.70;;;23.50;63.50;;;;;;5051617;28;20138;-64
2022/06/30 01:25:40;;;;;;;4.15;2.80;;;23.40;63.40;;;;;;5052021;28;20060;-64
2022/06/30 01:28:05;;;;;;;3.63;2.75;;;23.50;63.40;;;;;;5052269;28;20072;-64
2022/06/30 01:30:31;;;;;;;3.65;3.00;;;23.40;63.30;;;;;;5055368;28;20067;-64
2022/06/30 01:32:56;;;;;;;5.00;3.40;;;23.40;63.30;;;;;;5055978;28;20053;-64
2022/06/30 01:35:22;;;;;;;3.83;3.17;;;23.50;63.30;;;;;;5056061;28;20041;-64
2022/06/30 01:37:56;;;;;;;5.82;2.97;;;23.40;63.30;;;;;;5055492;28;20067;-64
2022/06/30 01:40:22;;;;;;;5.65;3.10;;;23.50;63.20;;;;;;5056388;28;20037;-64
2022/06/30 01:42:48;;;;;;;4.55;3.25;;;23.40;63.20;;;;;;5055705;28;20051;-64
2022/06/30 01:45:14;;;;;;;3.70;2.85;;;23.40;63.10;;;;;;5055280;28;20120;-64
2022/06/30 01:47:39;;;;;;;4.25;2.80;;;23.40;63.70;;;;;;5056196;28;20112;-63
2022/06/30 01:50:09;;;;;;;3.38;2.90;;;23.40;63.10;;;;;;5055887;28;20448;-64
2022/06/30 01:52:34;;;;;;;3.63;2.83;;;23.40;63.00;;;;;;5056002;28;20053;-64
2022/06/30 01:55:00;;;;;;;4.22;2.60;;;23.40;63.10;;;;;;5088081;28;20053;-64
2022/06/30 01:57:25;;;;;;;4.55;2.92;;;23.40;63.10;;;;;;5055027;28;20053;-64
2022/06/30 01:59:51;;;;;;;4.25;3.00;;;23.40;63.00;;;;;;5054003;28;20569;-63
2022/06/30 02:02:16;;;;;;;3.63;2.58;;;23.40;63.00;;;;;;5053871;28;20485;-63
2022/06/30 02:04:48;;;;;;;4.90;2.80;;;23.40;63.00;;;;;;5052532;28;20048;-63
2022/06/30 02:07:17;;;;;;;3.55;2.55;;;23.40;63.00;;;;;;5054605;28;20072;-63
2022/06/30 02:09:43;;;;;;;4.68;2.95;;;23.40;62.90;;;;;;5054923;28;20507;-63
2022/06/30 02:14:53;;;;;;;3.83;2.70;;;23.40;62.90;;;;;;5055191;28;20041;-63
2022/06/30 02:17:19;;;;;;;3.63;2.60;;;23.40;62.80;;;;;;5054181;28;20360;-63
2022/06/30 02:19:44;;;;;;;4.47;2.70;;;23.40;62.80;;;;;;5054368;28;20041;-63
2022/06/30 02:22:10;;;;;;;3.08;2.33;;;23.40;62.80;;;;;;5054045;28;20469;-63
2022/06/30 02:24:36;;;;;;;3.50;2.50;;;23.40;62.80;;;;;;5055055;28;20033;-64
2022/06/30 02:27:02;;;;;;;3.55;2.88;;;23.40;62.70;;;;;;5053148;28;20393;-64
2022/06/30 02:29:27;;;;;;;3.65;2.58;;;23.40;62.70;;;;;;5054175;28;20064;-64
2022/06/30 02:31:53;;;;;;;3.10;2.50;;;23.40;62.70;;;;;;5053975;28;20041;-64
2022/06/30 02:34:19;;;;;;;4.25;2.40;;;23.40;62.70;;;;;;5053339;28;20048;-64
2022/06/30 02:36:44;;;;;;;3.60;2.63;;;23.40;62.70;;;;;;5053525;28;20036;-64
2022/06/30 02:39:10;;;;;;;4.18;3.00;;;23.40;62.70;;;;;;5053653;28;20395;-64
2022/06/30 02:41:36;;;;;;;4.03;2.47;;;23.40;62.70;;;;;;5053304;28;20118;-64
2022/06/30 02:44:02;;;;;;;4.10;2.42;;;23.40;62.70;;;;;;5052405;28;20076;-64
2022/06/30 02:46:28;;;;;;;3.40;2.22;;;23.40;62.70;;;;;;5053096;28;20603;-65
2022/06/30 02:48:53;;;;;;;4.00;2.70;;;23.30;62.60;;;;;;5053733;28;20037;-64
2022/06/30 02:51:19;;;;;;;3.47;2.65;;;23.30;62.70;;;;;;5053663;28;20107;-63
2022/06/30 02:53:44;;;;;;;3.38;2.60;;;23.30;62.60;;;;;;5052848;28;20047;-64
2022/06/30 02:56:11;;;;;;;3.63;2.33;;;23.30;62.60;;;;;;5053594;28;20128;-63
2022/06/30 02:58:37;;;;;;;5.82;2.70;;;23.30;62.50;;;;;;5053798;28;20045;-64
2022/06/30 03:01:03;;;;;;;5.05;2.53;;;23.30;62.60;;;;;;5052808;28;20486;-63
2022/06/30 03:03:28;;;;;;;4.10;2.50;;;23.30;62.60;;;;;;5053642;28;20044;-63
2022/06/30 03:05:54;;;;;;;3.38;2.47;;;23.30;62.50;;;;;;5053258;28;20516;-63
2022/06/30 03:08:19;;;;;;;4.65;3.05;;;23.30;62.50;;;;;;5052882;28;20609;-64
2022/06/30 03:10:45;;;;;;;5.80;3.15;;;23.30;62.50;;;;;;5053144;28;20045;-63
2022/06/30 03:13:10;;;;;;;5.25;2.80;;;23.30;62.50;;;;;;5053614;28;20118;-63
2022/06/30 03:15:36;;;;;;;3.67;2.67;;;23.30;62.50;;;;;;5052901;28;20114;-63
2022/06/30 03:18:02;;;;;;;4.10;2.35;;;23.30;62.40;;;;;;5053051;28;20056;-63
2022/06/30 03:20:27;;;;;;;5.63;2.75;;;23.30;62.40;;;;;;5053430;28;20041;-63
2022/06/30 03:22:53;;;;;;;3.08;2.15;;;23.30;62.40;;;;;;5052284;28;20041;-63
2022/06/30 03:25:18;;;;;;;3.90;2.42;;;23.30;62.40;;;;;;5017481;28;1039510;-64
2022/06/30 03:27:44;;;;;;;3.40;2.47;;;23.30;62.30;;;;;;5053899;28;20052;-63
2022/06/30 03:30:10;;;;;;;3.88;2.63;;;23.30;62.30;;;;;;5053451;28;20033;-63
2022/06/30 03:32:35;;;;;;;3.00;2.55;;;23.30;62.30;;;;;;5054048;28;20060;-63
2022/06/30 03:35:01;;;;;;;3.67;2.53;;;23.30;62.30;;;;;;5053970;28;20063;-63
2022/06/30 03:37:26;;;;;;;5.75;2.78;;;23.30;62.30;;;;;;5053272;28;20067;-63
2022/06/30 03:39:52;;;;;;;4.05;2.75;;;23.30;62.30;;;;;;5053887;28;20067;-63
2022/06/30 03:42:18;;;;;;;3.88;2.50;;;23.30;62.30;;;;;;5054131;28;20556;-63
2022/06/30 03:44:43;;;;;;;3.83;2.22;;;23.20;62.30;;;;;;5052901;28;20099;-63
2022/06/30 03:47:09;;;;;;;3.25;2.35;;;23.20;62.20;;;;;;5054116;28;20043;-64
2022/06/30 03:49:34;;;;;;;3.63;2.60;;;23.20;62.20;;;;;;5053962;28;20382;-64
2022/06/30 03:52:00;;;;;;;3.70;2.90;;;23.20;62.20;;;;;;5051985;28;20044;-64
2022/06/30 03:54:26;;;;;;;3.63;2.40;;;23.20;62.20;;;;;;5053939;28;20083;-63
2022/06/30 03:56:52;;;;;;;3.20;2.45;;;23.20;62.20;;;;;;5052238;28;20147;-63
2022/06/30 03:59:18;;;;;;;6.55;2.70;;;23.20;62.20;;;;;;5053036;28;20053;-63
2022/06/30 04:01:43;;;;;;;3.53;2.45;;;23.20;62.20;;;;;;5053270;28;20076;-63
2022/06/30 04:04:09;;;;;;;3.53;2.53;;;23.20;62.20;;;;;;5052502;28;20519;-63
2022/06/30 04:06:34;;;;;;;3.58;2.42;;;23.30;62.20;;;;;;5052805;28;20444;-64
2022/06/30 04:09:00;;;;;;;2.55;2.28;;;23.20;62.20;;;;;;5052945;28;20472;-64
2022/06/30 04:11:25;;;;;;;5.18;2.72;;;23.20;62.20;;;;;;5052796;28;20390;-64
2022/06/30 04:13:51;;;;;;;3.53;2.67;;;23.20;62.20;;;;;;5053101;28;20045;-64
2022/06/30 04:16:16;;;;;;;4.63;3.17;;;23.20;62.20;;;;;;5053409;28;20049;-64
2022/06/30 04:18:42;;;;;;;4.07;2.22;;;23.20;62.20;;;;;;5052435;28;20037;-64
2022/06/30 04:21:08;;;;;;;5.60;2.47;;;23.20;62.20;;;;;;5053426;28;20128;-64
2022/06/30 04:23:33;;;;;;;4.70;3.15;;;23.20;62.20;;;;;;5053295;28;20045;-64
2022/06/30 04:25:59;;;;;;;4.05;2.70;;;23.20;62.20;;;;;;5051890;28;20057;-64
2022/06/30 04:28:24;;;;;;;3.58;2.35;;;23.20;62.10;;;;;;5053311;28;20088;-64
2022/06/30 04:33:34;;;;;;;4.50;2.53;;;23.20;62.10;;;;;;5052460;28;20049;-64
2022/06/30 04:35:59;;;;;;;4.20;2.70;;;23.30;62.20;;;;;;5052608;28;20044;-64
2022/06/30 04:38:25;;;;;;;4.07;2.67;;;23.30;62.20;;;;;;5052826;28;20132;-64
2022/06/30 04:43:35;;;;;;;3.75;2.70;;;23.30;62.20;;;;;;5052730;28;20041;-64
2022/06/30 04:46:00;;;;;;;3.40;2.47;;;23.30;62.20;;;;;;5050724;28;20052;-64
2022/06/30 04:48:26;;;;;;;5.75;2.47;;;23.30;62.10;;;;;;5052578;28;20520;-64
2022/06/30 04:50:51;;;;;;;3.50;2.60;;;23.30;62.10;;;;;;5052486;28;20400;-64
2022/06/30 04:53:17;;;;;;;3.58;2.45;;;23.30;62.10;;;;;;5052184;28;20048;-64
2022/06/30 04:55:43;;;;;;;3.10;2.58;;;23.30;62.20;;;;;;5052494;28;20487;-64
2022/06/30 04:58:08;;;;;;;3.40;2.70;;;23.30;62.20;;;;;;5052709;28;20041;-64
2022/06/30 05:00:34;;;;;;;3.25;2.13;;;23.30;62.20;;;;;;5051953;28;20048;-64
2022/06/30 05:02:59;;;;;;;4.05;2.80;;;23.30;62.20;;;;;;5051994;28;20115;-64
2022/06/30 05:05:26;;;;;;;3.38;2.35;;;23.30;62.20;;;;;;5052388;28;20044;-64
2022/06/30 05:07:51;;;;;;;2.83;2.47;;;23.30;62.20;;;;;;5051312;28;20083;-63
2022/06/30 05:10:17;;;;;;;3.65;2.55;;;23.40;62.10;;;;;;5052706;28;20108;-63
2022/06/30 05:12:42;;;;;;;4.20;2.30;;;23.30;62.10;;;;;;5051950;28;20049;-63
2022/06/30 05:15:08;;;;;;;3.30;2.45;;;23.30;62.10;;;;;;5051593;28;20041;-63
2022/06/30 05:17:34;;;;;;;4.13;2.50;;;23.30;62.10;;;;;;5052383;28;20091;-63
2022/06/30 05:20:00;;;;;;;3.60;2.40;;;23.30;62.10;;;;;;5052301;28;20033;-64
2022/06/30 05:22:25;;;;;;;2.78;2.10;;;23.30;62.10;;;;;;5051855;28;20499;-63
2022/06/30 05:27:35;;;;;;;4.07;2.60;;;23.40;62.20;;;;;;5052527;28;20045;-63
2022/06/30 05:30:01;;;;;;;2.97;2.28;;;23.30;62.20;;;;;;5051074;28;20047;-64
2022/06/30 05:32:26;;;;;;;3.35;2.65;;;23.40;62.30;;;;;;5052021;28;20076;-64
2022/06/30 05:34:52;;;;;;;3.78;2.20;;;23.40;62.30;;;;;;5052223;28;20037;-64
2022/06/30 05:37:17;;;;;;;4.15;2.58;;;23.40;62.40;;;;;;5051501;28;20389;-64
2022/06/30 05:39:43;;;;;;;4.28;2.75;;;23.40;63.00;;;;;;5051719;28;20041;-64
2022/06/30 05:42:09;;;;;;;3.35;2.42;;;23.40;62.40;;;;;;5051887;28;20037;-62
2022/06/30 05:44:34;;;;;;;3.45;2.70;;;23.40;62.40;;;;;;5051184;28;20449;-62
2022/06/30 05:47:00;;;;;;;7.03;3.88;;;23.40;62.40;;;;;;5051937;28;20060;-65
2022/06/30 05:49:25;;;;;;;4.65;3.40;;;23.40;62.20;;;;;;5091440;28;20040;-62
2022/06/30 05:51:51;;;;;;;5.22;3.28;;;23.30;62.00;;;;;;5071161;28;20048;-62
2022/06/30 05:54:17;;;;;;;7.28;3.75;;;23.30;62.00;;;;;;5072182;28;20036;-62
2022/06/30 05:56:43;;;;;;;6.60;4.13;;;23.20;62.10;;;;;;5071236;28;20120;-62
2022/06/30 05:59:08;;;;;;;6.63;3.60;;;23.20;62.20;;;;;;5072127;28;20068;-62
2022/06/30 06:01:34;;;;;;;5.18;3.55;;;23.20;62.20;;;;;;5072428;28;20484;-62
2022/06/30 06:03:59;;;;;;;6.60;3.70;;;23.20;62.20;;;;;;5071155;28;20079;-62
2022/06/30 06:06:25;;;;;;;8.13;3.60;;;23.20;62.20;;;;;;5072058;28;20044;-61
2022/06/30 06:08:50;;;;;;;6.55;3.97;;;23.10;62.20;;;;;;5071568;28;20044;-62
2022/06/30 06:11:16;;;;;;;8.45;3.60;;;23.10;62.30;;;;;;5071129;28;20045;-62
2022/06/30 06:13:41;;;;;;;5.55;3.33;;;23.10;62.50;;;;;;5071738;28;20141;-62
2022/06/30 06:16:07;;;;;;;6.88;3.42;;;23.10;62.60;;;;;;5075246;28;20050;-62
2022/06/30 06:18:33;;;;;;;5.85;3.60;;;23.10;62.70;;;;;;5074933;28;20125;-62
2022/06/30 06:20:58;;;;;;;5.47;3.65;;;23.10;62.80;;;;;;5074943;28;20072;-62
2022/06/30 06:23:24;;;;;;;7.57;4.15;;;23.10;62.90;;;;;;5075486;28;20040;-62
2022/06/30 06:25:51;;;;;;;6.22;3.85;;;23.10;62.80;;;;;;5073864;28;20489;-62
2022/06/30 06:31:00;;;;;;;5.65;4.18;;;23.10;62.90;;;;;;5074955;28;20053;-63
2022/06/30 06:33:26;;;;;;;7.50;4.00;;;23.10;62.90;;;;;;5074723;28;20136;-62
2022/06/30 06:35:51;;;;;;;5.75;3.40;;;23.10;63.00;;;;;;5075043;28;20045;-63
2022/06/30 06:38:17;;;;;;;5.70;3.78;;;23.10;63.20;;;;;;5073893;28;20055;-62
2022/06/30 06:40:43;;;;;;;8.25;4.10;;;23.10;63.40;;;;;;5074014;28;20127;-63
2022/06/30 06:43:08;;;;;;;6.50;4.13;;;23.00;63.50;;;;;;5073661;28;20068;-62
2022/06/30 06:45:34;;;;;;;6.78;3.75;;;23.00;63.50;;;;;;5074446;28;20091;-61
2022/06/30 06:47:59;;;;;;;7.63;4.28;;;23.00;63.60;;;;;;5074975;28;20040;-62
2022/06/30 06:50:25;;;;;;;7.10;4.10;;;23.00;63.80;;;;;;5074959;28;20044;-61
2022/06/30 06:52:50;;;;;;;6.25;3.83;;;23.00;63.90;;;;;;5073857;28;20484;-62
2022/06/30 06:55:17;;;;;;;5.57;3.95;;;23.00;64.10;;;;;;5075158;28;20135;-61
2022/06/30 06:57:43;;;;;;;5.35;4.00;;;23.00;64.20;;;;;;5074330;28;20059;-61
2022/06/30 07:00:09;;;;;;;6.07;4.22;;;23.00;64.30;;;;;;5074046;28;20048;-62
2022/06/30 07:02:35;;;;;;;5.93;4.20;;;23.00;64.50;;;;;;5074976;28;20142;-62
2022/06/30 07:05:00;;;;;;;7.93;4.35;;;23.00;64.60;;;;;;5074369;28;20083;-62
2022/06/30 07:07:26;;;;;;;5.28;3.72;;;23.00;64.70;;;;;;5073745;28;20051;-62
2022/06/30 07:09:52;;;;;;;6.15;4.05;;;23.00;64.80;;;;;;5073814;28;20040;-61
2022/06/30 07:12:17;;;;;;;7.13;4.18;;;23.00;64.90;;;;;;5073619;28;20052;-61
2022/06/30 07:14:43;;;;;;;5.50;4.40;;;23.00;65.10;;;;;;5072720;28;20040;-61
2022/06/30 07:17:08;;;;;;;7.18;4.95;;;23.00;65.20;;;;;;5074808;28;20043;-62
2022/06/30 07:19:34;;;;;;;6.93;4.60;;;23.00;65.40;;;;;;5074686;28;20480;-62
2022/06/30 07:21:59;;;;;;;5.47;4.32;;;23.00;65.40;;;;;;5073281;28;20044;-61
2022/06/30 07:24:25;;;;;;;5.30;4.15;;;23.00;65.40;;;;;;5074144;28;20044;-62
2022/06/30 07:26:51;;;;;;;5.78;4.45;;;23.00;65.40;;;;;;5072767;28;20048;-62
2022/06/30 07:29:16;;;;;;;9.07;4.93;;;23.00;65.50;;;;;;5072955;28;20043;-62
2022/06/30 07:31:42;;;;;;;7.68;4.22;;;23.10;65.60;;;;;;5073134;28;20048;-64
2022/06/30 07:34:08;;;;;;;7.30;4.82;;;23.10;65.70;;;;;;5074274;28;20072;-62
2022/06/30 07:36:34;;;;;;;8.38;4.78;;;23.20;65.80;;;;;;5072936;28;20365;-62
2022/06/30 07:38:59;;;;;;;5.70;4.60;;;23.20;65.90;;;;;;5073315;28;20506;-62
2022/06/30 07:41:25;;;;;;;6.95;4.47;;;23.20;66.00;;;;;;5072831;28;20105;-62
2022/06/30 07:43:50;;;;;;;5.15;4.22;;;23.20;66.00;;;;;;5071526;28;20438;-63
2022/06/30 07:46:16;;;;;;;6.47;4.72;;;23.20;66.10;;;;;;5073847;28;20040;-62
2022/06/30 07:48:42;;;;;;;5.78;4.50;;;23.30;66.20;;;;;;5072225;28;20039;-61
2022/06/30 07:51:08;;;;;;;9.00;4.80;;;23.30;66.20;;;;;;5073237;28;20041;-65
2022/06/30 07:53:33;;;;;;;7.00;4.70;;;23.40;66.30;;;;;;5074690;28;20044;-61
2022/06/30 07:55:59;;;;;;;5.53;4.30;;;23.40;66.30;;;;;;5072340;28;20148;-62
2022/06/30 07:58:24;;;;;;;5.82;4.65;;;23.40;66.30;;;;;;5073592;28;20098;-63
2022/06/30 08:00:50;;;;;;;4.75;4.00;;;23.40;66.40;;;;;;5073473;28;20044;-63
2022/06/30 08:03:15;;;;;;;7.65;4.38;;;23.40;66.40;;;;;;5072865;28;20048;-62
2022/06/30 08:05:41;;;;;;;7.50;4.40;;;23.40;66.40;;;;;;5072980;28;20211;-62
2022/06/30 08:08:06;;;;;;;5.93;4.70;;;23.40;66.50;;;;;;5073426;28;20072;-62
2022/06/30 08:10:32;;;;;;;8.50;4.60;;;23.50;66.60;;;;;;5072663;28;20063;-62
2022/06/30 08:12:58;;;;;;;6.28;4.55;;;23.50;66.60;;;;;;5073187;28;20037;-62
2022/06/30 08:15:23;;;;;;;6.25;4.47;;;23.50;66.60;;;;;;5072321;28;20072;-62
2022/06/30 08:17:49;;;;;;;7.05;4.68;;;23.50;66.70;;;;;;5070471;28;20088;-62
2022/06/30 08:20:14;;;;;;;6.13;4.38;;;23.50;66.80;;;;;;5073247;28;20036;-62
2022/06/30 08:22:40;;;;;;;6.32;4.35;;;23.60;66.80;;;;;;5072786;28;20044;-62
2022/06/30 08:25:06;;;;;;;6.10;4.35;;;23.60;66.80;;;;;;5070765;28;20059;-63
2022/06/30 08:27:31;;;;;;;9.27;4.78;;;23.60;66.70;;;;;;5073259;28;20060;-62
2022/06/30 08:29:57;;;;;;;9.00;4.72;;;23.60;66.80;;;;;;5072819;28;20051;-62
2022/06/30 08:32:22;;;;;;;10.98;4.90;;;23.60;66.80;;;;;;5071040;28;20044;-62
2022/06/30 08:34:48;;;;;;;6.38;4.38;;;23.60;66.70;;;;;;5072446;28;20040;-62
2022/06/30 08:37:14;;;;;;;6.97;5.20;;;23.60;66.70;;;;;;5072479;28;20090;-63
2022/06/30 08:42:44;;;;;;;9.55;4.95;;;23.70;66.90;;;;;;5050276;28;20049;-63
2022/06/30 08:45:17;;;;;;;8.18;5.28;;;23.70;66.90;;;;;;5033241;28;20048;-62
2022/06/30 08:47:47;;;;;;;11.20;6.45;;;23.70;67.00;;;;;;5045218;28;20058;-62
2022/06/30 08:50:14;;;;;;;11.02;6.03;;;23.70;67.00;;;;;;5069461;28;20456;-62
2022/06/30 08:52:46;;;;;;;8.68;5.80;;;23.70;67.20;;;;;;5071345;28;20051;-62
2022/06/30 08:55:15;;;;;;;11.30;5.75;;;23.80;67.40;;;;;;5069584;28;20551;-61
2022/06/30 08:57:41;;;;;;;11.27;6.53;;;23.70;67.50;;;;;;5072428;28;20129;-61
2022/06/30 09:00:08;;;;;;;8.65;5.70;;;23.80;67.60;;;;;;5071988;28;20047;-61
2022/06/30 09:02:34;;;;;;;10.98;5.75;;;23.80;67.70;;;;;;5072617;28;20084;-61
2022/06/30 09:04:59;;;;;;;10.50;5.80;;;23.80;67.80;;;;;;5071050;28;20076;-62
2022/06/30 09:07:25;;;;;;;10.88;6.13;;;23.80;67.80;;;;;;5072013;28;20048;-61
2022/06/30 09:09:50;;;;;;;9.10;5.97;;;23.80;67.80;;;;;;5072381;28;20131;-62
2022/06/30 09:12:16;;;;;;;9.75;6.32;;;23.80;67.90;;;;;;5072181;28;20052;-61
2022/06/30 09:14:43;;;;;;;8.75;5.82;;;23.90;67.90;;;;;;5070068;28;20041;-61
2022/06/30 09:17:26;;;;;;;9.40;6.32;;;23.90;68.00;;;;;;5072212;28;20041;-61
2022/06/30 09:19:58;;;;;;;14.75;5.82;;;23.90;68.00;;;;;;5071884;28;20381;-61
2022/06/30 09:22:27;;;;;;;11.35;6.10;;;23.90;68.00;;;;;;5069914;28;20037;-61
2022/06/30 09:24:59;;;;;;;10.25;5.35;;;23.90;68.60;;;;;;5073115;28;20059;-62
2022/06/30 09:27:27;;;;;;;9.93;5.82;;;23.90;68.60;;;;;;5071272;28;20040;-60
2022/06/30 09:29:55;;;;;;;10.98;5.72;;;23.90;68.00;;;;;;5071764;28;20059;-60
2022/06/30 09:32:21;;;;;;;10.88;5.93;;;24.00;68.20;;;;;;5072082;28;20446;-60
2022/06/30 09:34:50;;;;;;;11.35;6.38;;;24.00;68.20;;;;;;5070720;28;20468;-61
2022/06/30 09:37:20;;;;;;;10.73;6.60;;;23.90;68.20;;;;;;5072054;28;20044;-62
2022/06/30 09:39:46;;;;;;;10.10;6.20;;;24.00;68.30;;;;;;5070794;28;20505;-59
2022/06/30 09:42:11;;;;;;;9.63;6.15;;;24.00;68.10;;;;;;5071577;28;20044;-59
2022/06/30 09:44:37;;;;;;;10.30;6.90;;;24.00;68.00;;;;;;5072339;28;20081;-60
2022/06/30 09:47:08;;;;;;;11.65;6.80;;;24.00;68.00;;;;;;5070917;28;20048;-60
2022/06/30 09:49:42;;;;;;;12.43;7.13;;;24.00;68.10;;;;;;5070464;28;20036;-60
2022/06/30 09:52:25;;;;;;;9.95;6.95;;;24.00;68.00;;;;;;5066539;28;20045;-60
2022/06/30 09:54:56;;;;;;;11.55;6.82;;;24.00;68.00;;;;;;5070217;28;20118;-60
2022/06/30 09:57:22;;;;;;;9.80;6.50;;;24.00;68.00;;;;;;5073918;28;20041;-61
2022/06/30 10:00:06;;;;;;;14.60;7.35;;;24.00;68.00;;;;;;5075136;28;20028;-61
2022/06/30 10:02:34;;;;;;;11.43;7.35;;;24.00;68.10;;;;;;5072476;28;20143;-61
2022/06/30 10:05:00;;;;;;;9.30;7.03;;;24.00;68.10;;;;;;5074716;28;20081;-61
2022/06/30 10:07:26;;;;;;;11.90;6.93;;;24.00;68.10;;;;;;5075393;28;20040;-61
2022/06/30 10:09:52;;;;;;;13.02;7.32;;;24.10;68.20;;;;;;5063853;28;20112;-61
2022/06/30 10:12:23;;;;;;;9.38;6.97;;;24.10;68.20;;;;;;5054860;28;20187;-61
2022/06/30 10:14:49;;;;;;;10.02;7.30;;;24.10;68.20;;;;;;5071713;28;20040;-61
2022/06/30 10:17:16;;;;;;;11.07;7.88;;;24.10;68.10;;;;;;5074051;28;20036;-61
2022/06/30 10:19:42;;;;;;;13.77;6.85;;;24.10;68.00;;;;;;5056272;28;20048;-60
2022/06/30 10:22:07;;;;;;;10.88;7.22;;;24.10;68.00;;;;;;5074725;28;20056;-62
2022/06/30 10:24:33;;;;;;;10.20;7.90;;;24.20;68.00;;;;;;5073365;28;20118;-62
2022/06/30 10:27:14;;;;;;;13.65;7.38;;;24.20;67.90;;;;;;5073563;28;20056;-62
2022/06/30 10:29:51;;;;;;;14.65;8.20;;;24.20;67.80;;;;;;5075203;28;20121;-62
2022/06/30 10:32:51;;;;;;;14.88;7.68;;;24.20;68.00;;;;;;5073051;28;20377;-62
2022/06/30 10:35:41;;;;;;;12.30;8.20;;;24.20;67.90;;;;;;5075263;28;20538;-62
2022/06/30 10:38:17;;;;;;;13.07;8.32;;;24.30;68.20;;;;;;5074254;28;20399;-62
2022/06/30 10:41:11;;;;;;;11.70;7.78;;;24.30;68.00;;;;;;5075095;28;20131;-62
2022/06/30 10:44:05;;;;;;;10.23;7.47;;;24.30;68.00;;;;;;5075095;28;20040;-62
2022/06/30 10:46:57;;;;;;;10.13;7.45;;;24.30;67.90;;;;;;5072464;28;20048;-63
2022/06/30 10:49:26;;;;;;;13.05;7.90;;;24.30;67.90;;;;;;5068190;28;20143;-61
2022/06/30 10:51:56;;;;;;;12.43;7.78;;;24.30;67.80;;;;;;5053150;28;20061;-61
2022/06/30 10:54:29;;;;;;;10.05;7.90;;;24.30;67.80;;;;;;5054210;28;20041;-61
2022/06/30 10:56:55;;;;;;;12.27;8.73;;;24.30;67.80;;;;;;5068301;28;20055;-61
2022/06/30 10:59:31;;;;;;;11.07;7.65;;;24.30;67.80;;;;;;5053484;28;20489;-61
2022/06/30 11:02:09;;;;;;;10.07;7.70;;;24.30;67.90;;;;;;5053274;28;20037;-60
2022/06/30 11:04:42;;;;;;;11.13;8.60;;;24.30;67.80;;;;;;5054158;28;20060;-61
2022/06/30 11:07:14;;;;;;;9.25;7.97;;;24.40;67.90;;;;;;5068317;28;20064;-60
2022/06/30 11:09:54;;;;;;;12.52;8.05;;;24.40;68.00;;;;;;5053545;28;20570;-61
2022/06/30 11:12:24;;;;;;;12.20;8.23;;;24.30;68.00;;;;;;5054176;28;20101;-61
2022/06/30 11:14:54;;;;;;;11.93;8.18;;;24.30;67.90;;;;;;5052422;28;20349;-61
2022/06/30 11:17:21;;;;;;;10.32;8.05;;;24.30;67.90;;;;;;5054034;28;20044;-61
2022/06/30 11:19:47;;;;;;;11.40;8.27;;;24.40;68.10;;;;;;5053174;28;20048;-61
2022/06/30 11:22:14;;;;;;;10.85;8.27;;;24.40;68.00;;;;;;5053068;28;20311;-61
2022/06/30 11:24:40;;;;;;;9.63;7.75;;;24.40;68.00;;;;;;5053619;28;20041;-62
2022/06/30 11:27:18;;;;;;;10.70;7.85;;;24.40;68.10;;;;;;5051404;28;20540;-61
2022/06/30 11:29:47;;;;;;;8.75;7.65;;;24.40;68.10;;;;;;5082295;28;20040;-61
2022/06/30 11:32:12;;;;;;;10.27;7.93;;;24.40;68.10;;;;;;5053741;28;20234;-61
2022/06/30 11:34:40;;;;;;;9.52;7.75;;;24.40;68.10;;;;;;5051795;28;20094;-60
2022/06/30 11:37:09;;;;;;;;;;;24.40;68.00;;;;;;5053707;28;20472;-61
2022/06/30 11:39:34;;;;;;;9.95;8.20;;;24.40;68.00;;;;;;5053403;28;20371;-61
2022/06/30 11:42:06;;;;;;;9.68;7.70;;;24.40;68.00;;;;;;5052454;28;20122;-61
2022/06/30 11:44:33;;;;;;;9.43;7.82;;;24.40;68.00;;;;;;5053251;28;20442;-61
2022/06/30 11:46:59;;;;;;;8.68;6.95;;;24.40;67.90;;;;;;5053041;28;20609;-61
2022/06/30 11:49:27;;;;;;;8.65;6.90;;;24.50;67.90;;;;;;5057589;28;20496;-61
2022/06/30 11:51:53;;;;;;;;;;;24.50;67.90;;;;;;5062923;28;20514;-60
2022/06/30 11:54:22;;;;;;;12.35;7.90;;;24.50;67.80;;;;;;5071394;28;20006;-59
2022/06/30 11:56:50;;;;;;;9.63;8.07;;;24.50;67.80;;;;;;5071764;28;20041;-60
2022/06/30 11:59:15;;;;;;;;;;;24.50;67.80;;;;;;5065613;28;20044;-60
2022/06/30 12:01:41;;;;;;;9.27;7.43;;;24.50;67.80;;;;;;5052247;28;19921;-60
2022/06/30 12:04:17;;;;;;;10.38;7.68;;;24.50;67.80;;;;;;5052483;28;20029;-60
2022/06/30 12:06:43;;;;;;;9.00;6.80;;;24.50;67.70;;;;;;5052366;28;20048;-61
2022/06/30 12:09:09;;;;;;;10.05;7.63;;;24.50;67.70;;;;;;5051789;28;20047;-60
2022/06/30 12:11:38;;;;;;;8.18;6.88;;;24.50;67.70;;;;;;5052667;28;20447;-60
2022/06/30 12:14:03;;;;;;;9.57;7.78;;;24.50;67.60;;;;;;5051819;28;20137;-60
2022/06/30 12:16:29;;;;;;;9.15;7.07;;;24.50;67.60;;;;;;5051571;28;20135;-60
2022/06/30 12:18:55;;;;;;;9.13;7.43;;;24.50;67.60;;;;;;5052458;28;20082;-60
2022/06/30 12:21:21;;;;;;;9.63;7.30;;;24.50;67.60;;;;;;5052798;28;20390;-62
2022/06/30 12:23:48;;;;;;;9.82;7.13;;;24.50;67.50;;;;;;5051724;28;20094;-62
2022/06/30 12:26:14;;;;;;;9.90;7.47;;;24.50;67.50;;;;;;5084246;28;20531;-61
2022/06/30 12:28:46;;;;;;;8.52;7.43;;;24.60;67.50;;;;;;5051100;28;20049;-62
2022/06/30 12:31:22;;;;;;;10.25;7.07;;;24.60;67.40;;;;;;5051920;28;20520;-62
2022/06/30 12:33:48;;;;;;;8.38;7.45;;;24.60;67.50;;;;;;5052227;28;20048;-62
2022/06/30 12:36:15;;;;;;;9.02;6.82;;;24.60;67.60;;;;;;5052145;28;20057;-62
2022/06/30 12:38:40;;;;;;;10.93;7.28;;;24.60;67.70;;;;;;5051770;28;20128;-63
2022/06/30 12:41:11;;;;;;;9.10;7.40;;;24.60;67.70;;;;;;5052425;28;20051;-63
2022/06/30 12:43:47;;;;;;;9.18;7.68;;;24.60;67.50;;;;;;5051868;28;20048;-62
2022/06/30 12:46:14;;;;;;;9.00;7.03;;;24.50;67.30;;;;;;5051306;28;20098;-63
2022/06/30 12:48:47;;;;;;;8.80;6.97;;;24.50;67.30;;;;;;5052282;28;20376;-63
2022/06/30 12:51:17;;;;;;;9.30;7.22;;;24.60;67.40;;;;;;5052032;28;20040;-64
2022/06/30 12:53:45;;;;;;;10.50;6.78;;;24.60;67.40;;;;;;5082993;28;20244;-62
2022/06/30 12:56:22;;;;;;;8.70;6.90;;;24.60;67.40;;;;;;5069082;28;20517;-62
2022/06/30 12:58:47;;;;;;;8.43;6.53;;;24.60;67.30;;;;;;5070377;28;20033;-62
2022/06/30 13:01:20;;;;;;;9.60;6.63;;;24.70;67.30;;;;;;5052828;28;20043;-62
2022/06/30 13:04:06;;;;;;;8.63;6.88;;;24.60;67.20;;;;;;5051756;28;20049;-62